Terminal Aerodrome Forecast
Issued by NWS

Current Version | Previous Version | Text Only | Print | Product List | Glossary Off
Versions: 1 2 3 4 5 6 7 8 9 10 11 12 13 14 15 16 17 18

000
FTUS41 KILN 260500
TAFLUK
TAF
KLUK 260532Z 2606/2706 12004KT 6SM BR SCT250
     FM260700 00000KT 4SM BR SCT250
     FM260800 14004KT 2SM BR SCT001
      TEMPO 2608/2612 1/4SM FG VV001
     FM261300 00000KT 2SM BR SKC
     FM261500 17004KT P6SM SCT035 SCT250
     FM262300 23003KT P6SM BKN250=

USA.gov is the U.S. government's official web portal to all federal, state and local government web resources and services.